Latest Coastal Weather Observations for Mardie

IDW60701

Issued at 3:43 pm WST Tuesday 28 February 2017 (issued every 10 minutes, with the page automatically refreshed every 10 minutes)

About coastal observations | Map of coastal stations | Coastal observations for WA | Marine services | Other Formats
Station Details ID: 005008 Name: MARDIE Lat: -21.19 Lon: 115.98 Height: 11.0 m
Data from the previous 72 hours. | See also: Recent months at Mardie
Date/Time
WST
Temp
°C
Wind Pressure Rain since
9am
mm
Weather Cloud Vis
km
Sea
Height
m
Swell
Dir  Spd
kts
Gust
kts
hPa Trend Height
m
Period
s
Dir
28/03:30pm 32.7 N 9 15 1008.0 - 0.0 - - - - - - -
28/03:00pm 33.0 N 7 11 1008.3 - 0.0 - - - - - - -
28/02:30pm 32.8 N 8 13 1008.6 - 0.0 - - - - - - -
28/02:00pm 33.0 N 7 13 1008.8 - 0.0 - - - - - - -
28/01:30pm 33.1 N 7 10 1009.0 - 0.0 - - - - - - -
28/01:00pm 33.1 N 6 9 1009.1 - 0.0 - - - - - - -
28/12:30pm 33.4 NNE 6 11 1009.4 - 0.0 - - - - - - -
28/12:00pm 32.8 NE 8 13 1009.8 - 0.0 - - - - - - -
28/11:30am 33.0 NE 8 12 1010.1 - 0.0 - - - - - - -
28/11:00am 32.6 NE 8 12 1010.4 - 0.0 - - - - - - -
28/10:30am 31.9 ENE 8 13 1010.7 - 0.0 - - - - - - -
28/10:00am 31.8 NE 8 11 1010.8 - 0.0 - - - - - - -
28/09:30am 30.9 ENE 6 10 1011.0 - 0.0 - - - - - - -
28/09:00am 30.0 ENE 8 13 1011.0 - 0.0 - - - - - - -
28/08:30am 29.3 ENE 6 9 1010.9 - 0.0 - - - - - - -
28/08:00am 29.0 ESE 6 7 1010.7 - 0.0 - - - - - - -
28/07:30am 28.1 ESE 5 7 1010.6 - 0.0 - - - - - - -
28/07:00am 27.2 SE 5 8 1010.3 - 0.0 - - - - - - -
28/06:30am 25.8 SE 4 5 1010.1 - 0.0 - - - - - - -
28/06:00am 25.5 SE 2 3 1009.8 - 0.0 - - - - - - -
28/05:30am 25.7 SE 3 4 1009.4 - 0.0 - - - - - - -
28/05:00am 25.7 SE 3 4 1009.3 - 0.0 - - - - - - -
28/04:30am 25.7 SE 2 4 1009.2 - 0.0 - - - - - - -
28/04:00am 25.7 ESE 3 3 1009.1 - 0.0 - - - - - - -
28/03:30am 25.8 E 2 4 1009.1 - 0.0 - - - - - - -
28/03:00am 25.7 E 4 5 1009.2 - 0.0 - - - - - - -
28/02:30am 25.5 CALM 0 2 1009.5 - 0.0 - - - - - - -
28/02:00am 25.3 CALM 0 3 1009.7 - 0.0 - - - - - - -
28/01:30am 25.1 SSW 3 6 1010.0 - 0.0 - - - - - - -
28/01:00am 25.1 SSE 2 4 1010.4 - 0.0 - - - - - - -
28/12:30am 25.0 SSE 6 8 1010.7 - 0.0 - - - - - - -
28/12:00am 25.0 SE 4 6 1010.9 - 0.0 - - - - - - -
 
Date/Time
WST
Temp
°C
Wind Pressure Rain since
9am
mm
Weather Cloud Vis
km
Sea
Height
m
Swell
Dir  Spd
kts
Gust
kts
hPa Trend Height
m
Period
s
Dir
27/11:30pm 24.8 S 4 6 1010.8 - 0.0 - - - - - - -
27/11:00pm 24.7 SSW 7 11 1011.4 - 0.0 - - - - - - -
27/10:30pm 24.8 SSW 6 9 1012.1 - 0.0 - - - - - - -
27/10:00pm 24.6 S 4 5 1011.9 - 0.0 - - - - - - -
27/09:30pm 24.6 S 5 7 1011.3 - 0.0 - - - - - - -
27/09:00pm 24.1 SE 3 6 1011.4 - 0.0 - - - - - - -
27/08:30pm 24.1 SE 2 6 1010.8 - 0.0 - - - - - - -
27/08:00pm 23.1 ENE 13 18 1010.9 - 0.0 - - - - - - -
27/07:30pm 22.8 ENE 10 13 1011.4 - 0.0 - - - - - - -
27/07:00pm 22.7 ESE 15 23 1010.8 - 0.0 - - - - - - -
27/06:54pm 22.3 SSE 19 31 1010.7 - 0.0 - - - - - - -
27/06:47pm 23.6 SSE 20 31 1010.2 - 0.0 - - - - - - -
27/06:46pm 24.1 SSE 19 29 1010.1 - 0.0 - - - - - - -
27/06:30pm 26.6 SSW 11 19 1009.5 - 0.0 - - - - - - -
27/06:00pm 31.1 N 6 10 1007.9 - 0.0 - - - - - - -
27/05:30pm 31.8 N 9 14 1007.4 - 0.0 - - - - - - -
27/05:00pm 32.4 N 9 13 1007.1 - 0.0 - - - - - - -
27/04:30pm 33.1 N 11 15 1007.2 - 0.0 - - - - - - -
27/04:00pm 33.5 N 11 15 1007.3 - 0.0 - - - - - - -
27/03:30pm 33.9 N 11 17 1007.4 - 0.0 - - - - - - -
27/03:00pm 34.0 N 12 16 1007.5 - 0.0 - - - - - - -
27/02:30pm 34.3 N 10 17 1007.7 - 0.0 - - - - - - -
27/02:00pm 34.5 N 9 15 1007.9 - 0.0 - - - - - - -
27/01:30pm 34.3 N 9 14 1008.3 - 0.0 - - - - - - -
27/01:00pm 35.2 ENE 5 11 1008.5 - 0.0 - - - - - - -
27/12:30pm 35.0 ENE 8 12 1009.0 - 0.0 - - - - - - -
27/12:00pm 35.0 E 9 13 1009.5 - 0.0 - - - - - - -
27/11:30am 34.4 NE 10 15 1010.0 - 0.0 - - - - - - -
27/11:00am 34.0 ENE 9 15 1010.3 - 0.0 - - - - - - -
27/10:30am 33.3 ENE 11 15 1010.6 - 0.0 - - - - - - -
27/10:00am 33.0 E 12 16 1010.7 - 0.0 - - - - - - -
27/09:30am 32.6 ENE 13 17 1010.7 - 0.0 - - - - - - -
27/09:00am 31.8 E 13 17 1010.7 - 0.0 - - - - - - -
27/08:30am 31.1 E 10 13 1010.6 - 0.0 - - - - - - -
27/08:00am 29.9 E 8 10 1010.4 - 0.0 - - - - - - -
27/07:30am 29.0 E 6 8 1010.2 - 0.0 - - - - - - -
27/07:00am 27.3 SSE 2 3 1009.6 - 0.0 - - - - - - -
27/06:30am 25.6 S 2 3 1009.4 - 0.0 - - - - - - -
27/06:00am 25.4 S 2 3 1009.2 - 0.0 - - - - - - -
27/05:30am 25.7 SSE 2 3 1009.1 - 0.0 - - - - - - -
27/05:00am 26.0 ESE 4 5 1008.9 - 0.0 - - - - - - -
27/04:30am 26.3 E 3 3 1009.1 - 0.0 - - - - - - -
27/04:00am 26.4 E 2 3 1008.8 - 0.0 - - - - - - -
27/03:30am 26.4 CALM 0 0 1009.0 - 0.0 - - - - - - -
27/03:00am 26.6 E 1 2 1009.1 - 0.0 - - - - - - -
27/02:30am 26.7 E 2 3 1009.1 - 0.0 - - - - - - -
27/02:00am 26.9 ENE 4 5 1009.3 - 0.0 - - - - - - -
27/01:30am 27.0 ENE 3 5 1009.3 - 0.0 - - - - - - -
27/01:00am 27.5 NE 4 5 1009.4 - 0.0 - - - - - - -
27/12:30am 28.0 NE 6 8 1009.4 - 0.0 - - - - - - -
27/12:00am 29.0 NNE 7 11 1009.3 - 0.0 - - - - - - -
 
Date/Time
WST
Temp
°C
Wind Pressure Rain since
9am
mm
Weather Cloud Vis
km
Sea
Height
m
Swell
Dir  Spd
kts
Gust
kts
hPa Trend Height
m
Period
s
Dir
26/11:30pm 29.2 CALM 0 3 1009.3 - 0.0 - - - - - - -
26/11:00pm 29.7 NNE 5 7 1009.2 - 0.0 - - - - - - -
26/10:30pm 29.7 NE 7 9 1009.4 - 0.0 - - - - - - -
26/10:00pm 29.9 ENE 8 11 1009.7 - 0.0 - - - - - - -
26/09:30pm 29.9 NNE 6 9 1009.0 - 0.0 - - - - - - -
26/09:00pm 30.2 NE 6 8 1009.1 - 0.0 - - - - - - -
26/08:30pm 30.0 CALM 0 2 1008.3 - 0.0 - - - - - - -
26/08:00pm 30.1 CALM 0 0 1008.0 - 0.0 - - - - - - -
26/07:30pm 30.1 NW 3 5 1007.2 - 0.0 - - - - - - -
26/07:00pm 30.7 NNW 3 4 1006.5 - 0.0 - - - - - - -
26/06:30pm 31.8 NNW 5 9 1006.0 - 0.0 - - - - - - -
26/06:00pm 32.8 NNW 6 9 1005.7 - 0.0 - - - - - - -
26/05:30pm 33.0 NNW 5 7 1005.8 - 0.0 - - - - - - -
26/05:00pm 33.8 NNE 12 17 1006.3 - 0.0 - - - - - - -
26/04:30pm 34.6 NNW 9 12 1005.9 - 0.0 - - - - - - -
26/04:00pm 35.4 NNW 8 12 1005.7 - 0.0 - - - - - - -
26/03:30pm 36.2 NNW 7 11 1005.8 - 0.0 - - - - - - -
26/03:00pm 37.4 NNW 7 11 1005.8 - 0.0 - - - - - - -
26/02:30pm 37.1 NNW 7 12 1006.0 - 0.0 - - - - - - -
26/02:00pm 37.5 N 8 11 1006.3 - 0.0 - - - - - - -
26/01:30pm 37.9 N 7 13 1006.5 - 0.0 - - - - - - -
26/01:00pm 40.0 ENE 9 16 1006.8 - 0.0 - - - - - - -
26/12:30pm 40.0 ENE 7 13 1007.1 - 0.0 - - - - - - -
26/12:00pm 39.3 E 9 13 1007.2 - 0.0 - - - - - - -
26/11:30am 39.3 E 10 15 1007.4 - 0.0 - - - - - - -
26/11:00am 38.7 E 9 14 1007.6 - 0.0 - - - - - - -
26/10:30am 37.3 ESE 8 10 1008.0 - 0.0 - - - - - - -
26/10:00am 36.3 ESE 7 10 1008.2 - 0.0 - - - - - - -
26/09:30am 34.1 SSE 3 6 1008.4 - 0.0 - - - - - - -
26/09:00am 32.2 SSE 5 8 1008.3 - 0.0 - - - - - - -
26/08:30am 30.8 S 6 7 1008.4 - 0.0 - - - - - - -
26/08:00am 29.6 S 5 7 1008.5 - 0.0 - - - - - - -
26/07:30am 27.3 S 5 7 1008.3 - 0.0 - - - - - - -
26/07:00am 25.3 SSW 5 6 1008.1 - 0.0 - - - - - - -
26/06:30am 24.5 S 6 7 1007.8 - 0.0 - - - - - - -
26/06:00am 23.9 SSW 5 7 1007.8 - 0.0 - - - - - - -
26/05:30am 24.1 SW 6 8 1007.8 - 0.0 - - - - - - -
26/05:00am 24.2 SSE 3 4 1007.4 - 0.0 - - - - - - -
26/04:30am 24.6 SSE 3 4 1007.2 - 0.0 - - - - - - -
26/04:00am 24.8 SE 2 3 1007.2 - 0.0 - - - - - - -
26/03:30am 25.0 SE 3 4 1007.1 - 0.0 - - - - - - -
26/03:00am 25.1 E 2 3 1007.4 - 0.0 - - - - - - -
26/02:30am 25.6 ESE 3 3 1007.6 - 0.0 - - - - - - -
26/02:00am 25.2 SSE 4 4 1007.9 - 0.0 - - - - - - -
26/01:30am 25.2 S 3 4 1008.2 - 0.0 - - - - - - -
26/01:00am 25.3 SE 3 4 1008.3 - 0.0 - - - - - - -
26/12:30am 25.5 SSE 2 4 1008.6 - 0.0 - - - - - - -
26/12:00am 26.2 SE 5 6 1008.7 - 0.0 - - - - - - -
 
Date/Time
WST
Temp
°C
Wind Pressure Rain since
9am
mm
Weather Cloud Vis
km
Sea
Height
m
Swell
Dir  Spd
kts
Gust
kts
hPa Trend Height
m
Period
s
Dir
25/11:30pm 26.6 ESE 4 5 1008.9 - 0.0 - - - - - - -
25/11:00pm 26.9 ESE 4 5 1009.0 - 0.0 - - - - - - -
25/10:30pm 26.9 ESE 5 5 1009.3 - 0.0 - - - - - - -
25/10:00pm 27.5 E 4 5 1009.3 - 0.0 - - - - - - -
25/09:30pm 27.6 SE 3 3 1009.4 - 0.0 - - - - - - -
25/09:00pm 28.2 S 1 3 1009.4 - 0.0 - - - - - - -
25/08:30pm 28.4 S 3 4 1009.4 - 0.0 - - - - - - -
25/08:00pm 29.3 S 5 7 1009.4 - 0.0 - - - - - - -
25/07:30pm 30.6 SSW 9 14 1009.3 - 0.0 - - - - - - -
25/07:00pm 31.4 SSW 9 13 1008.9 - 0.0 - - - - - - -
25/06:30pm 32.9 SW 12 18 1008.6 - 0.0 - - - - - - -
25/06:00pm 33.1 WNW 6 8 1008.2 - 0.0 - - - - - - -
25/05:30pm 33.2 W 7 10 1008.0 - 0.0 - - - - - - -
25/05:00pm 34.7 WNW 5 8 1007.9 - 0.0 - - - - - - -
25/04:30pm 35.3 NNW 5 9 1007.7 - 0.0 - - - - - - -
25/04:00pm 36.2 N 7 13 1007.5 - 0.0 - - - - - - -

Other Formats:

Comma delimited format used in spreadsheet applications
http://www.bom.gov.au/fwo/IDW60701/IDW60701.94306.axf

JavaScript Object Notation format (JSON) in row-major order
http://www.bom.gov.au/fwo/IDW60701/IDW60701.94306.json